createdAt,value
2019-06-27T00:00:10.609Z,935.67
2019-06-27T00:01:10.646Z,935.67
2019-06-27T00:02:10.622Z,935.70
2019-06-27T00:03:10.689Z,935.67
2019-06-27T00:04:10.581Z,935.71
2019-06-27T00:05:10.610Z,935.69
2019-06-27T00:06:10.591Z,935.76
2019-06-27T00:07:10.590Z,935.71
2019-06-27T00:08:10.560Z,935.74
2019-06-27T00:09:10.563Z,935.70
2019-06-27T00:10:10.564Z,935.69
2019-06-27T00:11:10.536Z,935.68
2019-06-27T00:12:10.534Z,935.68
2019-06-27T00:13:10.511Z,935.66
2019-06-27T00:14:10.525Z,935.66
2019-06-27T00:15:10.502Z,935.69
2019-06-27T00:16:10.510Z,935.66
2019-06-27T00:17:10.471Z,935.69
2019-06-27T00:18:10.484Z,935.66
2019-06-27T00:19:10.468Z,935.65
2019-06-27T00:20:10.478Z,935.69
2019-06-27T00:21:10.463Z,935.69
2019-06-27T00:22:10.435Z,935.69
2019-06-27T00:23:10.407Z,935.66
2019-06-27T00:24:10.435Z,935.66
2019-06-27T00:25:10.414Z,935.70
2019-06-27T00:26:10.403Z,935.70
2019-06-27T00:27:10.374Z,935.66
2019-06-27T00:28:10.402Z,935.70
2019-06-27T00:29:10.341Z,935.62
2019-06-27T00:30:10.363Z,935.67
2019-06-27T00:31:10.348Z,935.63
2019-06-27T00:32:10.333Z,935.60
2019-06-27T00:33:10.320Z,935.57
2019-06-27T00:34:10.349Z,935.54
2019-06-27T00:35:10.319Z,935.52
2019-06-27T00:36:10.309Z,935.50
2019-06-27T00:37:10.299Z,935.47
2019-06-27T00:38:10.314Z,935.55
2019-06-27T00:39:10.269Z,935.60
2019-06-27T00:40:10.272Z,935.61
2019-06-27T00:41:10.231Z,935.61
2019-06-27T00:42:10.231Z,935.59
2019-06-27T00:43:10.220Z,935.58
2019-06-27T00:44:10.223Z,935.61
2019-06-27T00:45:10.213Z,935.59
2019-06-27T00:46:10.197Z,935.62
2019-06-27T00:47:10.192Z,935.65
2019-06-27T00:48:10.209Z,935.65
2019-06-27T00:49:10.176Z,935.70
2019-06-27T00:50:10.153Z,935.72
2019-06-27T00:51:10.154Z,935.69
2019-06-27T00:52:10.134Z,935.71
2019-06-27T00:53:10.119Z,935.67
2019-06-27T00:54:10.115Z,935.68
2019-06-27T00:55:10.109Z,935.63
2019-06-27T00:56:10.090Z,935.61
2019-06-27T00:57:14.437Z,935.59
2019-06-27T00:58:11.573Z,935.59
2019-06-27T00:59:10.062Z,935.62
2019-06-27T01:00:10.065Z,935.63
2019-06-27T01:01:10.042Z,935.61
2019-06-27T01:02:10.051Z,935.68
2019-06-27T01:03:10.018Z,935.69
2019-06-27T01:04:10.015Z,935.71
2019-06-27T01:05:10.021Z,935.73
2019-06-27T01:06:10.048Z,935.69
2019-06-27T01:07:09.991Z,935.67
2019-06-27T01:08:09.972Z,935.71
2019-06-27T01:09:10.119Z,935.67
2019-06-27T01:10:09.964Z,935.68
2019-06-27T01:11:09.955Z,935.68
2019-06-27T01:12:09.941Z,935.65
2019-06-27T01:13:09.936Z,935.63
2019-06-27T01:14:10.081Z,935.65
2019-06-27T01:15:09.925Z,935.60
2019-06-27T01:16:09.943Z,935.63
2019-06-27T01:17:09.902Z,935.62
2019-06-27T01:18:09.881Z,935.62
2019-06-27T01:19:09.924Z,935.60
2019-06-27T01:20:09.869Z,935.62
2019-06-27T01:21:09.858Z,935.66
2019-06-27T01:22:09.850Z,935.64
2019-06-27T01:23:09.830Z,935.66
2019-06-27T01:24:09.991Z,935.63
2019-06-27T01:25:09.829Z,935.65
2019-06-27T01:26:09.826Z,935.69
2019-06-27T01:27:09.808Z,935.67
2019-06-27T01:28:09.802Z,935.69
2019-06-27T01:29:09.897Z,935.66
2019-06-27T01:30:09.779Z,935.70
2019-06-27T01:31:09.771Z,935.73
2019-06-27T01:32:09.746Z,935.73
2019-06-27T01:33:09.800Z,935.78
2019-06-27T01:34:09.915Z,935.79
2019-06-27T01:35:09.726Z,935.83
2019-06-27T01:36:09.729Z,935.83
2019-06-27T01:37:09.715Z,935.81
2019-06-27T01:38:09.724Z,935.83
2019-06-27T01:39:09.747Z,935.83
2019-06-27T01:40:09.797Z,935.86
2019-06-27T01:41:09.683Z,935.88
2019-06-27T01:42:09.664Z,935.93
2019-06-27T01:43:09.649Z,935.91
2019-06-27T01:44:09.652Z,935.93
2019-06-27T01:45:09.802Z,935.92
2019-06-27T01:46:09.631Z,935.95
2019-06-27T01:47:09.609Z,935.96
2019-06-27T01:48:09.612Z,935.97
2019-06-27T01:49:09.588Z,935.95
2019-06-27T01:50:09.585Z,935.97
2019-06-27T01:51:09.579Z,935.99
2019-06-27T01:52:09.570Z,936.00
2019-06-27T01:53:09.550Z,936.02
2019-06-27T01:54:09.543Z,936.06
2019-06-27T01:55:09.532Z,936.05
2019-06-27T01:56:09.530Z,936.05
2019-06-27T01:57:09.559Z,936.07
2019-06-27T01:58:09.539Z,936.12
2019-06-27T01:59:09.494Z,936.16
2019-06-27T02:00:09.485Z,936.19
2019-06-27T02:01:09.482Z,936.20
2019-06-27T02:02:09.474Z,936.22
2019-06-27T02:03:09.482Z,936.30
2019-06-27T02:04:09.467Z,936.30
2019-06-27T02:05:09.443Z,936.35
2019-06-27T02:06:09.437Z,936.36
2019-06-27T02:07:09.426Z,936.36
2019-06-27T02:08:09.408Z,936.36
2019-06-27T02:09:09.408Z,936.27
2019-06-27T02:10:09.410Z,936.30
2019-06-27T02:11:09.377Z,936.29
2019-06-27T02:12:09.366Z,936.27
2019-06-27T02:13:09.354Z,936.27
2019-06-27T02:14:09.351Z,936.33
2019-06-27T02:15:09.348Z,936.33
2019-06-27T02:16:09.347Z,936.34
2019-06-27T02:17:09.325Z,936.34
2019-06-27T02:18:09.338Z,936.38
2019-06-27T02:19:09.300Z,936.37
2019-06-27T02:20:09.289Z,936.33
2019-06-27T02:21:09.272Z,936.30
2019-06-27T02:22:09.263Z,936.29
2019-06-27T02:23:09.268Z,936.30
2019-06-27T02:24:09.278Z,936.28
2019-06-27T02:25:09.241Z,936.27
2019-06-27T02:26:09.232Z,936.29
2019-06-27T02:27:09.237Z,936.31
2019-06-27T02:28:09.195Z,936.32
2019-06-27T02:29:09.201Z,936.35
2019-06-27T02:30:09.189Z,936.37
2019-06-27T02:31:09.188Z,936.38
2019-06-27T02:32:09.171Z,936.37
2019-06-27T02:33:09.155Z,936.40
2019-06-27T02:34:09.159Z,936.36
2019-06-27T02:35:09.148Z,936.29
2019-06-27T02:36:09.156Z,936.32
2019-06-27T02:37:09.134Z,936.31
2019-06-27T02:38:09.109Z,936.29
2019-06-27T02:39:09.130Z,936.24
2019-06-27T02:40:09.085Z,936.22
2019-06-27T02:41:09.077Z,936.19
2019-06-27T02:42:09.075Z,936.25
2019-06-27T02:43:09.084Z,936.21
2019-06-27T02:44:09.056Z,936.21
2019-06-27T02:45:09.038Z,936.19
2019-06-27T02:46:09.032Z,936.18
2019-06-27T02:47:09.065Z,936.20
2019-06-27T02:48:09.029Z,936.14
2019-06-27T02:49:09.008Z,936.10
2019-06-27T02:50:08.998Z,936.11
2019-06-27T02:51:08.995Z,936.08
2019-06-27T02:52:08.989Z,936.07
2019-06-27T02:53:08.982Z,936.06
2019-06-27T02:54:08.966Z,936.04
2019-06-27T02:55:08.982Z,936.07
2019-06-27T02:56:08.910Z,936.05
2019-06-27T02:57:08.957Z,936.03
2019-06-27T02:58:28.545Z,936.00
2019-06-27T02:59:08.907Z,935.97
2019-06-27T03:00:08.895Z,935.94
2019-06-27T03:01:08.887Z,935.93
2019-06-27T03:02:08.872Z,935.91
2019-06-27T03:03:08.880Z,935.89
2019-06-27T03:04:08.897Z,935.82
2019-06-27T03:05:08.862Z,935.81
2019-06-27T03:06:08.859Z,935.84
2019-06-27T03:07:08.826Z,935.76
2019-06-27T03:08:08.806Z,935.71
2019-06-27T03:09:08.817Z,935.70
2019-06-27T03:10:08.790Z,935.65
2019-06-27T03:11:08.786Z,935.60
2019-06-27T03:12:08.776Z,935.61
2019-06-27T03:13:08.764Z,935.57
2019-06-27T03:14:08.755Z,935.55
2019-06-27T03:15:08.749Z,935.53
2019-06-27T03:16:08.752Z,935.52
2019-06-27T03:17:08.731Z,935.46
2019-06-27T03:18:08.722Z,935.46
2019-06-27T03:19:08.707Z,935.45
2019-06-27T03:20:08.695Z,935.46
2019-06-27T03:21:08.695Z,935.46
2019-06-27T03:22:08.694Z,935.44
2019-06-27T03:23:08.656Z,935.47
2019-06-27T03:24:08.670Z,935.41
2019-06-27T03:25:08.642Z,935.39
2019-06-27T03:26:08.637Z,935.40
2019-06-27T03:27:08.638Z,935.38
2019-06-27T03:28:08.611Z,935.37
2019-06-27T03:29:08.606Z,935.34
2019-06-27T03:30:08.596Z,935.40
2019-06-27T03:31:08.585Z,935.30
2019-06-27T03:32:08.567Z,935.27
2019-06-27T03:33:08.568Z,935.29
2019-06-27T03:34:08.602Z,935.25
2019-06-27T03:35:08.534Z,935.25
2019-06-27T03:36:08.535Z,935.23
2019-06-27T03:37:08.538Z,935.22
2019-06-27T03:38:08.623Z,935.21
2019-06-27T03:39:08.507Z,935.22
2019-06-27T03:40:08.497Z,935.16
2019-06-27T03:41:08.469Z,935.20
2019-06-27T03:42:08.485Z,935.17
2019-06-27T03:43:08.468Z,935.17
2019-06-27T03:44:08.447Z,935.21
2019-06-27T03:45:08.463Z,935.20
2019-06-27T03:46:08.433Z,935.19
2019-06-27T03:47:08.429Z,935.19
2019-06-27T03:48:08.430Z,935.17
2019-06-27T03:49:08.407Z,935.18
2019-06-27T03:50:08.414Z,935.20
2019-06-27T03:51:08.390Z,935.11
2019-06-27T03:52:08.401Z,935.13
2019-06-27T03:53:08.358Z,935.13
2019-06-27T03:54:08.367Z,935.15
2019-06-27T03:55:08.369Z,935.20
2019-06-27T03:56:08.341Z,935.19
2019-06-27T03:57:08.332Z,935.16
2019-06-27T03:58:08.306Z,935.15
2019-06-27T03:59:12.781Z,935.13
2019-06-27T04:00:08.321Z,935.12
2019-06-27T04:01:08.306Z,935.15
2019-06-27T04:02:08.268Z,935.16
2019-06-27T04:03:08.279Z,935.18
2019-06-27T04:04:08.250Z,935.21
2019-06-27T04:05:08.264Z,935.20
2019-06-27T04:06:08.238Z,935.22
2019-06-27T04:07:08.250Z,935.23
2019-06-27T04:08:08.223Z,935.25
2019-06-27T04:09:08.194Z,935.27
2019-06-27T04:10:08.225Z,935.29
2019-06-27T04:11:08.217Z,935.31
2019-06-27T04:12:08.201Z,935.31
2019-06-27T04:13:08.204Z,935.32
2019-06-27T04:14:08.167Z,935.34
2019-06-27T04:15:08.164Z,935.36
2019-06-27T04:16:08.148Z,935.34
2019-06-27T04:17:08.161Z,935.39
2019-06-27T04:18:08.151Z,935.41
2019-06-27T04:19:08.117Z,935.35
2019-06-27T04:20:08.084Z,935.38
2019-06-27T04:21:08.105Z,935.38
2019-06-27T04:22:08.077Z,935.36
2019-06-27T04:23:08.073Z,935.35
2019-06-27T04:24:08.097Z,935.34
2019-06-27T04:25:08.055Z,935.33
2019-06-27T04:26:08.050Z,935.28
2019-06-27T04:27:08.058Z,935.23
2019-06-27T04:28:08.026Z,935.28
2019-06-27T04:29:08.052Z,935.24
2019-06-27T04:30:08.018Z,935.26
2019-06-27T04:31:08.015Z,935.25
2019-06-27T04:32:07.979Z,935.25
2019-06-27T04:33:07.985Z,935.22
2019-06-27T04:34:07.969Z,935.21
2019-06-27T04:35:07.956Z,935.23
2019-06-27T04:36:07.957Z,935.25
2019-06-27T04:37:07.940Z,935.24
2019-06-27T04:38:07.927Z,935.25
2019-06-27T04:39:07.907Z,935.28
2019-06-27T04:40:07.909Z,935.32
2019-06-27T04:41:07.909Z,935.40
2019-06-27T04:42:07.893Z,935.48
2019-06-27T04:43:07.856Z,935.45
2019-06-27T04:44:07.911Z,935.48
2019-06-27T04:45:07.873Z,935.53
2019-06-27T04:46:07.852Z,935.52
2019-06-27T04:47:07.842Z,935.55
2019-06-27T04:48:07.872Z,935.63
2019-06-27T04:49:12.971Z,935.58
2019-06-27T04:50:07.803Z,935.63
2019-06-27T04:51:07.810Z,935.65
2019-06-27T04:52:07.800Z,935.67
2019-06-27T04:53:07.778Z,935.66
2019-06-27T04:54:07.775Z,935.69
2019-06-27T04:55:07.739Z,935.63
2019-06-27T04:56:07.738Z,935.71
2019-06-27T04:57:07.750Z,935.68
2019-06-27T04:58:07.725Z,935.69
2019-06-27T04:59:07.701Z,935.76
2019-06-27T05:00:07.717Z,935.73
2019-06-27T05:01:07.699Z,935.73
2019-06-27T05:02:07.694Z,935.77
2019-06-27T05:03:07.709Z,935.80
2019-06-27T05:04:07.678Z,935.82
2019-06-27T05:05:07.647Z,935.82
2019-06-27T05:06:07.651Z,935.84
2019-06-27T05:07:07.627Z,935.84
2019-06-27T05:08:07.631Z,935.81
2019-06-27T05:09:07.611Z,935.82
2019-06-27T05:10:07.608Z,935.81
2019-06-27T05:11:07.581Z,935.79
2019-06-27T05:12:07.572Z,935.75
2019-06-27T05:13:07.573Z,935.75
2019-06-27T05:14:07.560Z,935.75
2019-06-27T05:15:07.548Z,935.76
2019-06-27T05:16:07.551Z,935.77
2019-06-27T05:17:07.536Z,935.72
2019-06-27T05:18:07.522Z,935.71
2019-06-27T05:19:07.524Z,935.70
2019-06-27T05:20:07.498Z,935.73
2019-06-27T05:21:07.469Z,935.71
2019-06-27T05:22:07.499Z,935.70
2019-06-27T05:23:07.483Z,935.73
2019-06-27T05:24:07.450Z,935.72
2019-06-27T05:25:07.439Z,935.73
2019-06-27T05:26:07.436Z,935.73
2019-06-27T05:27:07.416Z,935.70
2019-06-27T05:28:07.418Z,935.65
2019-06-27T05:29:07.404Z,935.62
2019-06-27T05:30:09.866Z,935.62
2019-06-27T05:31:07.388Z,935.65
2019-06-27T05:32:07.393Z,935.61
2019-06-27T05:33:07.382Z,935.67
2019-06-27T05:34:07.356Z,935.61
2019-06-27T05:35:07.344Z,935.69
2019-06-27T05:36:07.369Z,935.66
2019-06-27T05:37:07.333Z,935.66
2019-06-27T05:38:07.313Z,935.65
2019-06-27T05:39:07.278Z,935.63
2019-06-27T05:40:07.290Z,935.62
2019-06-27T05:41:07.299Z,935.64
2019-06-27T05:42:07.274Z,935.59
2019-06-27T05:43:07.281Z,935.56
2019-06-27T05:44:07.255Z,935.54
2019-06-27T05:45:07.290Z,935.51
2019-06-27T05:46:07.244Z,935.55
2019-06-27T05:47:07.298Z,935.57
2019-06-27T05:48:07.200Z,935.61
2019-06-27T05:49:07.256Z,935.63
2019-06-27T05:50:07.216Z,935.67
2019-06-27T05:51:07.187Z,935.72
2019-06-27T05:52:07.180Z,935.64
2019-06-27T05:53:07.150Z,935.64
2019-06-27T05:54:07.200Z,935.64
2019-06-27T05:55:07.169Z,935.66
2019-06-27T05:56:07.131Z,935.66
2019-06-27T05:57:07.130Z,935.67
2019-06-27T05:58:07.124Z,935.74
2019-06-27T05:59:07.112Z,935.74
2019-06-27T06:00:07.094Z,935.73
2019-06-27T06:01:07.075Z,935.76
2019-06-27T06:02:07.075Z,935.77
2019-06-27T06:03:07.078Z,935.79
2019-06-27T06:04:07.053Z,935.73
2019-06-27T06:05:07.051Z,935.71
2019-06-27T06:06:07.024Z,935.67
2019-06-27T06:07:07.011Z,935.66
2019-06-27T06:08:06.994Z,935.71
2019-06-27T06:09:07.014Z,935.66
2019-06-27T06:10:07.017Z,935.68
2019-06-27T06:11:06.982Z,935.72
2019-06-27T06:12:07.042Z,935.70
2019-06-27T06:13:06.961Z,935.72
2019-06-27T06:14:06.961Z,935.72
2019-06-27T06:15:06.940Z,935.72
2019-06-27T06:16:06.938Z,935.73
2019-06-27T06:17:06.918Z,935.78
2019-06-27T06:18:06.923Z,935.75
2019-06-27T06:19:06.897Z,935.75
2019-06-27T06:20:06.898Z,935.78
2019-06-27T06:21:06.890Z,935.81
2019-06-27T06:22:06.857Z,935.82
2019-06-27T06:23:06.846Z,935.85
2019-06-27T06:24:06.863Z,935.86
2019-06-27T06:25:06.904Z,935.84
2019-06-27T06:26:06.829Z,935.87
2019-06-27T06:27:06.821Z,935.87
2019-06-27T06:28:06.808Z,935.85
2019-06-27T06:29:06.798Z,935.85
2019-06-27T06:30:06.794Z,935.86
2019-06-27T06:31:06.776Z,935.89
2019-06-27T06:32:06.772Z,935.90
2019-06-27T06:33:06.781Z,935.89
2019-06-27T06:34:06.759Z,935.95
2019-06-27T06:35:06.767Z,935.94
2019-06-27T06:36:06.720Z,935.91
2019-06-27T06:37:08.117Z,935.93
2019-06-27T06:38:06.709Z,935.95
2019-06-27T06:39:06.745Z,935.93
2019-06-27T06:40:06.692Z,935.97
2019-06-27T06:41:06.718Z,935.93
2019-06-27T06:42:06.674Z,935.99
2019-06-27T06:43:06.661Z,935.94
2019-06-27T06:44:06.649Z,935.92
2019-06-27T06:45:06.644Z,935.93
2019-06-27T06:46:06.698Z,935.94
2019-06-27T06:47:06.623Z,935.96
2019-06-27T06:48:06.639Z,935.97
2019-06-27T06:49:06.594Z,935.96
2019-06-27T06:50:06.564Z,935.95
2019-06-27T06:51:06.568Z,935.91
2019-06-27T06:52:06.578Z,935.92
2019-06-27T06:53:06.554Z,935.90
2019-06-27T06:54:06.553Z,935.96
2019-06-27T06:55:06.523Z,935.99
2019-06-27T06:56:06.550Z,936.02
2019-06-27T06:57:06.535Z,936.03
2019-06-27T06:58:06.537Z,936.09
2019-06-27T06:59:06.504Z,936.07
2019-06-27T07:00:06.502Z,936.09
2019-06-27T07:01:06.460Z,936.03
2019-06-27T07:02:06.463Z,936.04
2019-06-27T07:03:06.455Z,936.06
2019-06-27T07:04:06.464Z,936.02
2019-06-27T07:05:06.566Z,936.03
2019-06-27T07:06:06.481Z,936.00
2019-06-27T07:07:06.413Z,936.06
2019-06-27T07:08:06.402Z,936.01
2019-06-27T07:09:06.394Z,936.06
2019-06-27T07:10:06.383Z,936.02
2019-06-27T07:11:06.378Z,936.01
2019-06-27T07:12:06.371Z,936.01
2019-06-27T07:13:06.355Z,936.01
2019-06-27T07:14:06.355Z,935.96
2019-06-27T07:15:06.373Z,936.04
2019-06-27T07:16:06.309Z,936.03
2019-06-27T07:17:06.308Z,936.03
2019-06-27T07:18:06.318Z,936.04
2019-06-27T07:19:06.306Z,935.99
2019-06-27T07:20:06.290Z,935.99
2019-06-27T07:21:06.281Z,935.98
2019-06-27T07:22:06.238Z,935.97
2019-06-27T07:23:06.259Z,935.95
2019-06-27T07:24:06.241Z,935.99
2019-06-27T07:25:06.220Z,936.05
2019-06-27T07:26:06.212Z,936.03
2019-06-27T07:27:06.206Z,936.04
2019-06-27T07:28:06.204Z,936.06
2019-06-27T07:29:06.230Z,936.04
2019-06-27T07:30:06.214Z,936.04
2019-06-27T07:31:17.159Z,936.04
2019-06-27T07:32:06.148Z,936.03
2019-06-27T07:33:06.144Z,936.05
2019-06-27T07:34:06.153Z,936.07
2019-06-27T07:35:06.121Z,936.09
2019-06-27T07:36:06.106Z,936.11
2019-06-27T07:37:06.114Z,936.11
2019-06-27T07:38:06.100Z,936.13
2019-06-27T07:39:06.074Z,936.14
2019-06-27T07:40:06.094Z,936.16
2019-06-27T07:41:06.075Z,936.21
2019-06-27T07:42:06.058Z,936.18
2019-06-27T07:43:06.053Z,936.18
2019-06-27T07:44:06.029Z,936.15
2019-06-27T07:45:06.028Z,936.13
2019-06-27T07:46:06.003Z,936.09
2019-06-27T07:47:06.025Z,936.05
2019-06-27T07:48:06.002Z,936.10
2019-06-27T07:49:05.994Z,936.09
2019-06-27T07:50:05.985Z,936.10
2019-06-27T07:51:05.979Z,936.08
2019-06-27T07:52:05.939Z,936.13
2019-06-27T07:53:05.948Z,936.11
2019-06-27T07:54:05.926Z,936.07
2019-06-27T07:55:05.943Z,936.08
2019-06-27T07:56:05.914Z,936.06
2019-06-27T07:57:05.900Z,936.08
2019-06-27T07:58:05.893Z,936.06
2019-06-27T07:59:05.882Z,936.02
2019-06-27T08:00:05.882Z,936.06
2019-06-27T08:01:05.858Z,936.05
2019-06-27T08:02:05.861Z,936.07
2019-06-27T08:03:05.840Z,936.08
2019-06-27T08:04:05.862Z,936.11
2019-06-27T08:05:05.831Z,936.11
2019-06-27T08:06:05.936Z,936.16
2019-06-27T08:07:05.791Z,936.19
2019-06-27T08:08:05.813Z,936.19
2019-06-27T08:09:05.783Z,936.24
2019-06-27T08:10:05.780Z,936.26
2019-06-27T08:11:05.777Z,936.28
2019-06-27T08:12:05.761Z,936.32
2019-06-27T08:13:05.793Z,936.32
2019-06-27T08:14:05.732Z,936.38
2019-06-27T08:15:05.988Z,936.41
2019-06-27T08:16:05.704Z,936.41
2019-06-27T08:17:05.758Z,936.47
2019-06-27T08:18:05.698Z,936.50
2019-06-27T08:19:05.680Z,936.50
2019-06-27T08:20:05.672Z,936.54
2019-06-27T08:21:05.675Z,936.58
2019-06-27T08:22:05.642Z,936.55
2019-06-27T08:23:05.671Z,936.59
2019-06-27T08:24:05.635Z,936.59
2019-06-27T08:25:05.634Z,936.62
2019-06-27T08:26:05.608Z,936.61
2019-06-27T08:27:05.608Z,936.59
2019-06-27T08:28:05.603Z,936.60
2019-06-27T08:29:05.596Z,936.56
2019-06-27T08:30:08.310Z,936.56
2019-06-27T08:31:05.551Z,936.56
2019-06-27T08:32:05.539Z,936.64
2019-06-27T08:33:05.542Z,936.64
2019-06-27T08:34:05.538Z,936.63
2019-06-27T08:35:05.537Z,936.60
2019-06-27T08:36:05.522Z,936.54
2019-06-27T08:37:05.509Z,936.52
2019-06-27T08:38:05.506Z,936.50
2019-06-27T08:39:05.493Z,936.52
2019-06-27T08:40:05.477Z,936.47
2019-06-27T08:41:05.472Z,936.45
2019-06-27T08:42:05.452Z,936.47
2019-06-27T08:43:05.485Z,936.43
2019-06-27T08:44:05.442Z,936.45
2019-06-27T08:45:05.447Z,936.43
2019-06-27T08:46:05.422Z,936.45
2019-06-27T08:47:05.403Z,936.44
2019-06-27T08:48:05.389Z,936.45
2019-06-27T08:49:05.392Z,936.47
2019-06-27T08:50:05.362Z,936.49
2019-06-27T08:51:05.391Z,936.54
2019-06-27T08:52:05.356Z,936.51
2019-06-27T08:53:05.341Z,936.55
2019-06-27T08:54:05.349Z,936.61
2019-06-27T08:55:05.319Z,936.61
2019-06-27T08:56:05.311Z,936.59
2019-06-27T08:57:05.346Z,936.61
2019-06-27T08:58:05.305Z,936.61
2019-06-27T08:59:05.277Z,936.63
2019-06-27T09:00:05.297Z,936.66
2019-06-27T09:01:05.260Z,936.74
2019-06-27T09:02:09.040Z,936.78
2019-06-27T09:03:05.352Z,936.81
2019-06-27T09:04:05.236Z,936.81
2019-06-27T09:05:05.219Z,936.82
2019-06-27T09:06:05.222Z,936.84
2019-06-27T09:07:05.217Z,936.85
2019-06-27T09:08:05.192Z,936.83
2019-06-27T09:09:05.182Z,936.84
2019-06-27T09:10:05.169Z,936.86
2019-06-27T09:11:05.167Z,936.87
2019-06-27T09:12:05.178Z,936.87
2019-06-27T09:13:05.145Z,936.86
2019-06-27T09:14:05.141Z,936.85
2019-06-27T09:15:05.130Z,936.83
2019-06-27T09:16:05.131Z,936.81
2019-06-27T09:17:05.115Z,936.79
2019-06-27T09:18:05.103Z,936.80
2019-06-27T09:19:05.077Z,936.79
2019-06-27T09:20:05.089Z,936.80
2019-06-27T09:21:05.108Z,936.81
2019-06-27T09:22:05.089Z,936.81
2019-06-27T09:23:05.044Z,936.83
2019-06-27T09:24:05.030Z,936.85
2019-06-27T09:25:05.028Z,936.86
2019-06-27T09:26:05.058Z,936.85
2019-06-27T09:27:05.002Z,936.84
2019-06-27T09:28:04.993Z,936.88
2019-06-27T09:29:04.985Z,936.81
2019-06-27T09:30:05.026Z,936.85
2019-06-27T09:31:05.060Z,936.87
2019-06-27T09:32:04.968Z,936.84
2019-06-27T09:33:04.951Z,936.85
2019-06-27T09:34:04.973Z,936.86
2019-06-27T09:35:04.914Z,936.84
2019-06-27T09:36:04.907Z,936.84
2019-06-27T09:37:04.907Z,936.83
2019-06-27T09:38:04.899Z,936.85
2019-06-27T09:39:04.868Z,936.87
2019-06-27T09:40:04.871Z,936.86
2019-06-27T09:41:04.869Z,936.91
2019-06-27T09:42:04.849Z,936.96
2019-06-27T09:43:04.842Z,936.97
2019-06-27T09:44:04.846Z,937.02
2019-06-27T09:45:04.857Z,936.98
2019-06-27T09:46:04.833Z,936.93
2019-06-27T09:47:04.809Z,936.98
2019-06-27T09:48:04.787Z,936.98
2019-06-27T09:49:04.786Z,937.00
2019-06-27T09:50:04.782Z,937.00
2019-06-27T09:51:04.751Z,937.00
2019-06-27T09:52:04.730Z,937.06
2019-06-27T09:53:04.797Z,937.06
2019-06-27T09:54:04.711Z,937.05
2019-06-27T09:55:04.723Z,937.08
2019-06-27T09:56:04.696Z,937.07
2019-06-27T09:57:04.699Z,937.13
2019-06-27T09:58:04.741Z,937.12
2019-06-27T09:59:04.678Z,937.16
2019-06-27T10:00:04.669Z,937.15
2019-06-27T10:01:06.128Z,937.19
2019-06-27T10:02:04.656Z,937.19
2019-06-27T10:03:04.659Z,937.24
2019-06-27T10:04:04.644Z,937.31
2019-06-27T10:05:04.622Z,937.30
2019-06-27T10:06:04.610Z,937.31
2019-06-27T10:07:04.590Z,937.35
2019-06-27T10:08:04.593Z,937.35
2019-06-27T10:09:04.574Z,937.36
2019-06-27T10:10:04.576Z,937.41
2019-06-27T10:11:04.547Z,937.41
2019-06-27T10:12:04.539Z,937.45
2019-06-27T10:13:04.546Z,937.50
2019-06-27T10:14:04.526Z,937.53
2019-06-27T10:15:04.537Z,937.52
2019-06-27T10:16:04.496Z,937.58
2019-06-27T10:17:04.503Z,937.61
2019-06-27T10:18:04.483Z,937.62
2019-06-27T10:19:04.481Z,937.71
2019-06-27T10:20:04.502Z,937.70
2019-06-27T10:21:04.462Z,937.66
2019-06-27T10:22:04.484Z,937.66
2019-06-27T10:23:04.440Z,937.64
2019-06-27T10:24:04.438Z,937.61
2019-06-27T10:25:04.422Z,937.67
2019-06-27T10:26:04.393Z,937.69
2019-06-27T10:27:04.392Z,937.75
2019-06-27T10:28:04.404Z,937.74
2019-06-27T10:29:04.370Z,937.73
2019-06-27T10:30:04.370Z,937.79
2019-06-27T10:31:04.364Z,937.78
2019-06-27T10:32:04.330Z,937.87
2019-06-27T10:33:04.337Z,937.85
2019-06-27T10:34:04.322Z,937.84
2019-06-27T10:35:04.359Z,937.81
2019-06-27T10:36:04.327Z,937.75
2019-06-27T10:37:04.330Z,937.70
2019-06-27T10:38:04.296Z,937.57
2019-06-27T10:39:04.287Z,937.57
2019-06-27T10:40:04.284Z,937.54
2019-06-27T10:41:04.258Z,937.55
2019-06-27T10:42:04.244Z,937.64
2019-06-27T10:43:04.245Z,937.65
2019-06-27T10:44:04.229Z,937.78
2019-06-27T10:45:04.196Z,937.78
2019-06-27T10:46:04.200Z,937.77
2019-06-27T10:47:04.202Z,937.74
2019-06-27T10:48:04.187Z,937.72
2019-06-27T10:49:04.188Z,937.69
2019-06-27T10:50:04.155Z,937.74
2019-06-27T10:51:04.166Z,937.76
2019-06-27T10:52:04.144Z,937.85
2019-06-27T10:53:04.124Z,937.87
2019-06-27T10:54:04.127Z,937.91
2019-06-27T10:55:04.136Z,937.95
2019-06-27T10:56:04.092Z,937.94
2019-06-27T10:57:04.093Z,937.99
2019-06-27T10:58:04.107Z,938.02
2019-06-27T10:59:04.076Z,938.01
2019-06-27T11:00:04.057Z,938.04
2019-06-27T11:01:04.067Z,938.08
2019-06-27T11:02:04.054Z,938.08
2019-06-27T11:03:15.076Z,938.13
2019-06-27T11:04:04.046Z,938.14
2019-06-27T11:05:04.034Z,938.13
2019-06-27T11:06:04.038Z,938.14
2019-06-27T11:07:04.003Z,938.15
2019-06-27T11:08:04.008Z,938.16
2019-06-27T11:09:03.989Z,938.15
2019-06-27T11:10:03.957Z,938.14
2019-06-27T11:11:03.956Z,938.14
2019-06-27T11:12:03.961Z,938.14
2019-06-27T11:13:03.934Z,938.10
2019-06-27T11:14:03.915Z,938.12
2019-06-27T11:15:03.940Z,938.13
2019-06-27T11:16:03.936Z,938.13
2019-06-27T11:17:03.912Z,938.16
2019-06-27T11:18:03.884Z,938.19
2019-06-27T11:19:03.886Z,938.21
2019-06-27T11:20:03.876Z,938.22
2019-06-27T11:21:03.860Z,938.24
2019-06-27T11:22:03.849Z,938.24
2019-06-27T11:23:03.851Z,938.24
2019-06-27T11:24:03.832Z,938.25
2019-06-27T11:25:03.814Z,938.25
2019-06-27T11:26:03.828Z,938.25
2019-06-27T11:27:03.809Z,938.28
2019-06-27T11:28:03.798Z,938.26
2019-06-27T11:29:03.811Z,938.25
2019-06-27T11:30:03.757Z,938.29
2019-06-27T11:31:03.776Z,938.31
2019-06-27T11:32:03.757Z,938.32
2019-06-27T11:33:03.753Z,938.35
2019-06-27T11:34:03.760Z,938.37
2019-06-27T11:35:03.726Z,938.35
2019-06-27T11:36:03.900Z,938.34
2019-06-27T11:37:03.710Z,938.37
2019-06-27T11:38:03.686Z,938.37
2019-06-27T11:39:03.688Z,938.39
2019-06-27T11:40:03.680Z,938.39
2019-06-27T11:41:03.659Z,938.37
2019-06-27T11:42:03.668Z,938.39
2019-06-27T11:43:03.661Z,938.41
2019-06-27T11:44:03.678Z,938.40
2019-06-27T11:45:03.635Z,938.43
2019-06-27T11:46:03.609Z,938.48
2019-06-27T11:47:03.606Z,938.51
2019-06-27T11:48:03.601Z,938.51
2019-06-27T11:49:03.597Z,938.52
2019-06-27T11:50:03.600Z,938.52
2019-06-27T11:51:03.582Z,938.52
2019-06-27T11:52:03.566Z,938.52
2019-06-27T11:53:03.567Z,938.58
2019-06-27T11:54:03.556Z,938.60
2019-06-27T11:55:03.697Z,938.64
2019-06-27T11:56:03.675Z,938.61
2019-06-27T11:57:03.536Z,938.59
2019-06-27T11:58:03.544Z,938.60
2019-06-27T11:59:03.500Z,938.61
2019-06-27T12:00:03.490Z,938.59
2019-06-27T12:01:03.508Z,938.60
2019-06-27T12:02:03.484Z,938.60
2019-06-27T12:03:03.482Z,938.60
2019-06-27T12:04:03.960Z,938.58
2019-06-27T12:05:03.470Z,938.58
2019-06-27T12:06:03.479Z,938.58
2019-06-27T12:07:03.455Z,938.54
2019-06-27T12:08:03.471Z,938.52
2019-06-27T12:09:03.435Z,938.57
2019-06-27T12:10:03.403Z,938.52
2019-06-27T12:11:03.420Z,938.57
2019-06-27T12:12:03.407Z,938.59
2019-06-27T12:13:03.393Z,938.56
2019-06-27T12:14:03.415Z,938.60
2019-06-27T12:15:03.759Z,938.56
2019-06-27T12:16:03.358Z,938.60
2019-06-27T12:17:03.367Z,938.57
2019-06-27T12:18:03.349Z,938.64
2019-06-27T12:19:03.339Z,938.69
2019-06-27T12:20:03.333Z,938.69
2019-06-27T12:21:05.933Z,938.70
2019-06-27T12:22:03.331Z,938.71
2019-06-27T12:23:03.301Z,938.68
2019-06-27T12:24:03.304Z,938.68
2019-06-27T12:25:03.326Z,938.64
2019-06-27T12:26:03.309Z,938.62
2019-06-27T12:27:03.733Z,938.59
2019-06-27T12:28:03.274Z,938.59